Time;durP1;ratioP1;P1;durP2;ratioP2;P2;SDS_P1;SDS_P2;PMS_P1;PMS_P2;Temp;Humidity;BMP_temperature;BMP_pressure;BME280_temperature;BME280_humidity;BME280_pressure;Samples;Min_cycle;Max_cycle;Signal;HPM_P1;HPM_P2
2022/11/13 00:02:36;;;;;;;7.68;3.85;;;8.30;99.90;;;;;;20759522;28;20053;-38
2022/11/13 00:12:37;;;;;;;8.27;4.80;;;8.20;99.90;;;;;;20770889;28;20094;-38
2022/11/13 00:22:38;;;;;;;8.80;3.58;;;8.10;99.90;;;;;;20800865;28;20409;-38
2022/11/13 00:32:39;;;;;;;7.72;4.05;;;8.10;99.90;;;;;;20791703;28;20545;-38
2022/11/13 00:42:40;;;;;;;6.22;2.53;;;8.00;99.90;;;;;;20790329;28;20803;-39
2022/11/13 00:52:41;;;;;;;4.88;3.13;;;8.00;99.90;;;;;;20778941;28;20052;-38
2022/11/13 01:02:42;;;;;;;5.70;3.42;;;7.90;99.90;;;;;;20766789;28;20829;-38
2022/11/13 01:12:43;;;;;;;7.15;4.18;;;7.90;99.90;;;;;;20740390;28;20810;-38
2022/11/13 01:22:44;;;;;;;5.57;3.65;;;7.90;99.90;;;;;;20752654;28;20579;-38
2022/11/13 01:32:45;;;;;;;8.82;4.13;;;7.90;99.90;;;;;;20758954;28;20048;-38
2022/11/13 01:42:46;;;;;;;5.93;3.00;;;7.90;99.90;;;;;;20751209;28;21136;-39
2022/11/13 01:52:47;;;;;;;9.90;4.45;;;7.80;99.90;;;;;;20741830;28;20080;-39
2022/11/13 02:02:48;;;;;;;6.53;4.07;;;7.70;99.90;;;;;;20751369;28;20075;-39
2022/11/13 02:12:51;;;;;;;6.22;3.88;;;7.80;99.90;;;;;;20736673;28;20081;-39
2022/11/13 02:23:00;;;;;;;6.47;3.83;;;7.80;99.90;;;;;;20740167;28;20440;-38
2022/11/13 02:33:18;;;;;;;8.18;4.57;;;7.70;99.90;;;;;;20740759;28;20128;-38
2022/11/13 02:43:19;;;;;;;8.67;4.27;;;7.60;99.90;;;;;;20746145;28;20566;-38
2022/11/13 02:53:20;;;;;;;5.65;3.35;;;7.60;99.90;;;;;;20743835;28;20169;-39
2022/11/13 03:03:21;;;;;;;9.05;4.45;;;7.50;99.90;;;;;;20749530;28;20300;-38
2022/11/13 03:13:22;;;;;;;5.97;3.78;;;7.50;99.90;;;;;;20744721;28;20522;-38
2022/11/13 03:23:23;;;;;;;14.38;4.28;;;7.50;99.90;;;;;;20781808;28;20548;-39
2022/11/13 03:43:32;;;;;;;7.85;3.28;;;7.30;99.90;;;;;;20668309;28;20056;-38
2022/11/13 03:53:33;;;;;;;4.95;3.17;;;7.20;99.90;;;;;;20680452;28;20481;-38
2022/11/13 04:03:34;;;;;;;4.32;3.25;;;7.30;99.90;;;;;;20673365;28;20127;-39
2022/11/13 04:13:36;;;;;;;7.47;4.10;;;7.10;99.90;;;;;;20667426;28;20049;-39
2022/11/13 04:23:37;;;;;;;7.78;3.70;;;7.00;99.90;;;;;;20675356;28;20133;-39
2022/11/13 04:33:38;;;;;;;7.35;4.05;;;6.80;99.90;;;;;;20676425;28;20045;-38
2022/11/13 04:43:39;;;;;;;7.93;4.65;;;6.80;99.90;;;;;;20622842;28;20038;-38
2022/11/13 04:53:40;;;;;;;5.30;2.95;;;6.80;99.90;;;;;;20623621;28;20295;-38
2022/11/13 05:03:41;;;;;;;5.05;3.45;;;6.70;99.90;;;;;;20610234;28;20752;-39
2022/11/13 05:13:42;;;;;;;6.43;3.38;;;6.70;99.90;;;;;;20611558;28;20053;-38
2022/11/13 05:23:43;;;;;;;7.30;3.67;;;6.60;99.90;;;;;;20637217;28;21148;-39
2022/11/13 05:33:44;;;;;;;8.77;3.05;;;6.50;99.90;;;;;;20610581;28;20715;-39
2022/11/13 05:43:45;;;;;;;5.82;3.53;;;6.50;99.90;;;;;;20627888;28;20090;-38
2022/11/13 05:53:46;;;;;;;5.05;2.72;;;6.40;99.90;;;;;;20620696;28;20119;-38
2022/11/13 06:03:49;;;;;;;5.75;3.58;;;6.40;99.90;;;;;;20621497;28;20107;-39
2022/11/13 06:13:51;;;;;;;18.88;3.75;;;6.50;99.90;;;;;;20605397;28;20087;-38
2022/11/13 06:23:52;;;;;;;4.90;3.17;;;6.50;99.90;;;;;;20597944;28;20039;-38
2022/11/13 06:33:54;;;;;;;5.53;3.08;;;6.30;99.90;;;;;;20616214;28;20720;-38
2022/11/13 06:43:57;;;;;;;5.20;2.65;;;6.30;99.90;;;;;;20606291;28;20077;-39
2022/11/13 06:53:58;;;;;;;4.18;2.20;;;6.10;99.90;;;;;;20602124;28;20378;-38
2022/11/13 07:03:59;;;;;;;6.30;2.88;;;6.00;99.90;;;;;;20604169;28;20622;-38
2022/11/13 07:14:00;;;;;;;5.88;2.63;;;5.90;99.90;;;;;;20603345;28;20396;-38
2022/11/13 07:24:01;;;;;;;5.78;2.97;;;5.90;99.90;;;;;;20597302;28;20046;-38
2022/11/13 07:34:02;;;;;;;5.25;3.47;;;5.90;99.90;;;;;;20568404;28;20262;-39
2022/11/13 07:44:03;;;;;;;7.22;3.53;;;6.10;99.90;;;;;;20592702;28;20124;-39
2022/11/13 07:54:04;;;;;;;8.05;3.72;;;6.30;99.90;;;;;;20596262;28;20613;-39
2022/11/13 08:04:05;;;;;;;7.45;4.40;;;6.60;99.90;;;;;;20604178;28;20455;-38
2022/11/13 08:14:06;;;;;;;6.43;3.30;;;6.80;99.90;;;;;;20621523;28;20098;-38
2022/11/13 08:24:09;;;;;;;4.55;3.13;;;7.10;99.90;;;;;;20613870;28;20201;-39
2022/11/13 08:34:10;;;;;;;6.97;3.83;;;7.50;99.90;;;;;;20612648;28;20214;-38
2022/11/13 08:44:11;;;;;;;8.00;3.30;;;8.00;99.90;;;;;;20609895;28;20164;-39
2022/11/13 08:54:12;;;;;;;5.05;2.78;;;8.30;99.90;;;;;;20617665;28;20421;-39
2022/11/13 09:04:13;;;;;;;6.45;3.13;;;8.70;99.90;;;;;;20608567;28;20066;-39
2022/11/13 09:14:14;;;;;;;4.57;2.70;;;8.90;99.90;;;;;;20618888;28;20046;-39
2022/11/13 09:24:15;;;;;;;7.55;3.08;;;9.40;99.90;;;;;;20624738;28;20123;-39
2022/11/13 09:34:16;;;;;;;3.85;2.65;;;9.50;99.90;;;;;;20604256;28;20084;-39
2022/11/13 09:44:37;;;;;;;4.22;2.47;;;9.70;99.90;;;;;;20604167;28;20117;-38
2022/11/13 09:54:39;;;;;;;4.65;2.72;;;9.90;99.90;;;;;;20608251;28;20125;-38
2022/11/13 10:04:46;;;;;;;6.85;2.72;;;10.20;99.90;;;;;;20600533;28;20132;-38
2022/11/13 10:14:51;;;;;;;7.33;3.43;;;10.50;99.90;;;;;;20612908;28;21859;-38
2022/11/13 10:24:58;;;;;;;4.38;2.53;;;10.90;99.90;;;;;;20616343;28;20549;-38
2022/11/13 10:35:26;;;;;;;4.85;1.75;;;11.20;99.90;;;;;;20614106;28;21724;-38
2022/11/13 10:45:27;;;;;;;4.80;2.50;;;11.90;99.90;;;;;;20593076;28;20317;-38
2022/11/13 10:55:38;;;;;;;3.88;1.80;;;12.40;99.90;;;;;;20591035;28;20141;-38
2022/11/13 11:05:39;;;;;;;4.90;1.55;;;13.30;99.90;;;;;;20599364;28;20038;-38
2022/11/13 11:15:51;;;;;;;2.65;1.30;;;14.50;99.90;;;;;;20563862;28;20616;-39
2022/11/13 11:26:01;;;;;;;1.60;0.68;;;15.60;99.70;;;;;;20579138;28;20887;-37
2022/11/13 11:36:20;;;;;;;2.03;0.90;;;16.40;94.10;;;;;;20562114;28;20177;-36
2022/11/13 11:46:23;;;;;;;3.80;0.65;;;17.00;92.80;;;;;;20602670;28;20555;-36
2022/11/13 11:56:33;;;;;;;1.73;0.82;;;17.60;91.50;;;;;;20600359;28;20314;-37
2022/11/13 12:06:40;;;;;;;1.25;0.77;;;17.90;87.40;;;;;;20605974;28;20104;-37
2022/11/13 12:16:50;;;;;;;1.70;1.00;;;18.40;91.40;;;;;;20602819;28;21963;-37
2022/11/13 12:27:19;;;;;;;2.42;0.57;;;18.70;90.30;;;;;;20607707;28;21083;-37
2022/11/13 12:37:45;;;;;;;1.45;0.70;;;19.10;84.70;;;;;;20638511;28;20665;-37
2022/11/13 12:47:48;;;;;;;1.65;0.65;;;19.50;83.70;;;;;;20594369;28;20707;-37
2022/11/13 12:57:50;;;;;;;1.83;0.60;;;19.80;81.80;;;;;;20616454;28;20599;-37
2022/11/13 13:08:18;;;;;;;1.05;0.60;;;19.90;79.10;;;;;;20612961;28;20145;-37
2022/11/13 13:18:19;;;;;;;2.17;1.02;;;19.80;85.60;;;;;;20610072;28;20091;-37
2022/11/13 13:28:23;;;;;;;2.03;0.93;;;19.80;83.90;;;;;;20577051;28;20042;-37
2022/11/13 13:38:54;;;;;;;2.20;0.90;;;19.60;87.40;;;;;;20608339;28;20135;-37
2022/11/13 13:49:03;;;;;;;2.42;1.17;;;18.20;88.40;;;;;;20598374;28;20313;-36
2022/11/13 13:59:04;;;;;;;2.22;1.00;;;17.50;90.00;;;;;;20597513;28;20624;-36
2022/11/13 14:09:10;;;;;;;2.95;0.73;;;17.10;90.60;;;;;;20608478;28;20078;-36
2022/11/13 14:19:11;;;;;;;5.55;1.58;;;17.20;91.60;;;;;;20624186;28;20116;-37
2022/11/13 14:29:24;;;;;;;2.65;0.85;;;17.70;90.80;;;;;;20621360;28;20054;-37
2022/11/13 14:39:30;;;;;;;4.95;1.52;;;18.70;89.90;;;;;;20604858;28;20170;-37
2022/11/13 14:49:36;;;;;;;3.58;1.77;;;18.80;87.70;;;;;;20611415;28;20108;-37
2022/11/13 14:59:40;;;;;;;2.67;1.60;;;18.00;87.70;;;;;;20594686;28;20524;-36
2022/11/13 15:09:41;;;;;;;2.17;1.33;;;17.00;90.10;;;;;;20595592;28;20674;-37
2022/11/13 15:19:43;;;;;;;2.15;0.80;;;16.30;90.40;;;;;;20597573;28;20609;-37
2022/11/13 15:29:44;;;;;;;2.28;1.00;;;15.80;93.10;;;;;;20614529;28;20641;-36
2022/11/13 15:39:45;;;;;;;1.70;0.98;;;15.20;95.30;;;;;;20594309;28;20456;-36
2022/11/13 15:49:46;;;;;;;3.03;1.20;;;14.80;99.20;;;;;;20597566;28;20565;-36
2022/11/13 15:59:48;;;;;;;4.10;1.30;;;13.90;99.90;;;;;;20600418;28;20771;-39
2022/11/13 16:09:49;;;;;;;3.22;1.30;;;13.10;99.90;;;;;;20608984;28;20074;-37
2022/11/13 16:19:53;;;;;;;2.92;1.52;;;12.70;99.90;;;;;;20630093;28;20053;-37
2022/11/13 16:29:54;;;;;;;6.82;2.15;;;12.20;99.90;;;;;;20626342;28;20070;-37
2022/11/13 16:39:55;;;;;;;4.47;2.47;;;11.70;99.90;;;;;;20621869;28;20082;-38
2022/11/13 16:49:59;;;;;;;4.05;1.70;;;11.30;99.90;;;;;;20614540;28;20100;-37
2022/11/13 17:00:00;;;;;;;4.13;2.03;;;11.00;99.90;;;;;;20607889;28;20108;-39
2022/11/13 17:10:01;;;;;;;3.78;1.73;;;10.70;99.90;;;;;;20600626;28;20191;-37
2022/11/13 17:20:03;;;;;;;5.72;2.10;;;10.60;99.90;;;;;;20632489;28;20046;-37
2022/11/13 17:30:04;;;;;;;10.48;4.15;;;10.40;99.90;;;;;;20628917;28;20066;-37
2022/11/13 17:40:06;;;;;;;5.82;3.80;;;10.10;99.90;;;;;;20633562;28;20116;-38
2022/11/13 17:50:08;;;;;;;6.15;3.67;;;9.90;99.90;;;;;;20648629;28;20046;-39
2022/11/13 18:00:09;;;;;;;7.63;3.28;;;9.80;99.90;;;;;;20640472;28;20045;-38
2022/11/13 18:10:10;;;;;;;10.88;5.55;;;9.60;99.90;;;;;;20636438;28;20053;-38
2022/11/13 18:20:11;;;;;;;7.43;4.78;;;9.40;99.90;;;;;;20624572;28;20041;-39
2022/11/13 18:30:12;;;;;;;8.07;4.78;;;9.20;99.90;;;;;;20614813;28;20326;-38
2022/11/13 18:40:13;;;;;;;18.17;6.82;;;9.00;99.90;;;;;;20635728;28;20125;-39
2022/11/13 18:50:15;;;;;;;22.35;9.85;;;8.90;99.90;;;;;;20637601;28;20477;-38
2022/11/13 19:00:17;;;;;;;19.77;7.57;;;8.80;99.90;;;;;;20613937;28;20054;-38
2022/11/13 19:10:18;;;;;;;10.48;4.55;;;8.70;99.90;;;;;;20564713;28;20054;-38
2022/11/13 19:20:19;;;;;;;8.32;4.05;;;8.70;99.90;;;;;;20579976;28;20152;-38
2022/11/13 19:30:20;;;;;;;11.60;6.70;;;8.60;99.90;;;;;;20587382;28;20466;-38
2022/11/13 19:40:21;;;;;;;9.63;4.90;;;8.20;99.90;;;;;;20607356;28;20467;-38
2022/11/13 19:50:22;;;;;;;9.23;5.03;;;8.10;99.90;;;;;;20574145;28;20537;-38
2022/11/13 20:00:23;;;;;;;8.90;5.05;;;8.10;99.90;;;;;;20590471;28;20571;-38
2022/11/13 20:10:24;;;;;;;8.32;4.82;;;7.90;99.90;;;;;;20590888;28;20478;-38
2022/11/13 20:20:25;;;;;;;8.82;5.18;;;7.90;99.90;;;;;;20624466;28;20389;-38
2022/11/13 20:30:26;;;;;;;11.85;5.78;;;7.80;99.90;;;;;;20623755;28;20152;-38
2022/11/13 20:40:27;;;;;;;12.30;5.18;;;7.60;99.90;;;;;;20638161;28;20172;-38
2022/11/13 20:50:28;;;;;;;8.70;4.63;;;7.50;99.90;;;;;;20623365;28;20401;-38
2022/11/13 21:00:29;;;;;;;10.73;6.90;;;7.40;99.90;;;;;;20627155;28;20655;-38
2022/11/13 21:10:32;;;;;;;8.68;6.03;;;7.20;99.90;;;;;;20626614;28;20524;-38
2022/11/13 21:20:34;;;;;;;9.27;4.28;;;7.20;99.90;;;;;;20586091;28;20045;-38
2022/11/13 21:30:35;;;;;;;10.20;5.00;;;7.10;99.90;;;;;;20596449;28;20130;-38
2022/11/13 21:40:36;;;;;;;8.13;5.72;;;7.00;99.90;;;;;;20628496;28;20050;-38
2022/11/13 21:50:37;;;;;;;9.13;5.38;;;6.90;99.90;;;;;;20624154;28;20069;-38
2022/11/13 22:00:38;;;;;;;7.18;4.63;;;6.90;99.90;;;;;;20625859;28;20042;-38
2022/11/13 22:10:39;;;;;;;8.80;4.00;;;6.90;99.90;;;;;;20620543;28;20046;-38
2022/11/13 22:20:42;;;;;;;6.88;4.20;;;7.00;99.90;;;;;;20597841;28;20070;-38
2022/11/13 22:30:45;;;;;;;7.45;3.47;;;7.00;99.90;;;;;;20597610;28;20494;-38
2022/11/13 22:40:46;;;;;;;10.20;5.00;;;7.00;99.90;;;;;;20588487;28;20125;-38
2022/11/13 22:50:47;;;;;;;7.18;3.72;;;7.00;99.90;;;;;;20596253;28;20326;-38
2022/11/13 23:00:48;;;;;;;5.88;3.65;;;7.00;99.90;;;;;;20595102;28;20239;-38
2022/11/13 23:10:53;;;;;;;7.60;3.63;;;7.00;99.90;;;;;;20598382;28;20224;-38
2022/11/13 23:20:54;;;;;;;7.03;4.00;;;6.80;99.90;;;;;;20616000;28;20129;-38
2022/11/13 23:30:55;;;;;;;5.60;3.22;;;6.90;99.90;;;;;;20580676;28;20631;-38
2022/11/13 23:40:57;;;;;;;5.75;3.38;;;6.90;99.90;;;;;;20576810;28;20390;-38
2022/11/13 23:51:02;;;;;;;7.95;3.35;;;6.90;99.90;;;;;;20566872;28;20038;-38
